createdAt,value
2022-12-04T00:01:15.949Z,79.50
2022-12-04T00:04:58.050Z,79.50
2022-12-04T00:08:41.234Z,79.50
2022-12-04T00:12:23.226Z,79.50
2022-12-04T00:16:11.665Z,79.50
2022-12-04T00:19:53.837Z,79.50
2022-12-04T00:23:36.683Z,79.50
2022-12-04T00:27:18.830Z,79.50
2022-12-04T00:31:00.789Z,79.50
2022-12-04T00:34:42.783Z,79.50
2022-12-04T00:38:25.130Z,79.60
2022-12-04T00:42:07.068Z,79.60
2022-12-04T00:45:49.891Z,79.60
2022-12-04T00:49:31.913Z,79.60
2022-12-04T00:53:13.973Z,79.60
2022-12-04T00:56:55.954Z,79.60
2022-12-04T01:00:40.442Z,79.60
2022-12-04T01:04:22.451Z,79.60
2022-12-04T01:08:04.471Z,79.70
2022-12-04T01:11:46.655Z,79.70
2022-12-04T01:15:28.619Z,79.70
2022-12-04T01:19:12.691Z,79.70
2022-12-04T01:22:54.774Z,79.70
2022-12-04T01:26:36.806Z,79.60
2022-12-04T01:30:18.920Z,79.70
2022-12-04T01:34:00.915Z,79.60
2022-12-04T01:37:42.843Z,79.60
2022-12-04T01:41:30.521Z,79.60
2022-12-04T01:45:30.990Z,79.60
2022-12-04T01:49:17.652Z,79.50
2022-12-04T01:52:59.988Z,79.50
2022-12-04T01:56:50.338Z,79.50
2022-12-04T02:00:32.495Z,79.50
2022-12-04T02:04:14.472Z,79.50
2022-12-04T02:07:58.837Z,79.50
2022-12-04T02:11:57.351Z,79.40
2022-12-04T02:15:44.582Z,79.40
2022-12-04T02:19:50.961Z,79.40
2022-12-04T02:23:55.117Z,79.20
2022-12-04T02:27:40.264Z,79.20
2022-12-04T02:31:46.816Z,79.20
2022-12-04T02:35:30.998Z,79.20
2022-12-04T02:39:30.733Z,79.20
2022-12-04T02:43:21.115Z,79.10
2022-12-04T02:47:07.602Z,79.10
2022-12-04T02:50:53.061Z,79.20
2022-12-04T02:54:39.587Z,79.20
2022-12-04T02:58:29.470Z,79.20
2022-12-04T03:02:35.667Z,79.20
2022-12-04T03:06:20.174Z,79.10
2022-12-04T03:10:14.533Z,79.10
2022-12-04T03:14:14.262Z,79.00
2022-12-04T03:18:02.504Z,79.00
2022-12-04T03:21:56.550Z,79.00
2022-12-04T03:25:50.161Z,79.00
2022-12-04T03:29:55.474Z,79.00
2022-12-04T03:33:44.546Z,78.90
2022-12-04T03:37:32.608Z,79.00
2022-12-04T03:41:27.271Z,79.00
2022-12-04T03:45:14.803Z,78.70
2022-12-04T03:49:18.642Z,78.80
2022-12-04T03:53:20.880Z,78.80
2022-12-04T03:57:12.969Z,78.80
2022-12-04T04:00:57.238Z,78.90
2022-12-04T04:04:42.610Z,78.90
2022-12-04T04:08:34.195Z,78.90
2022-12-04T04:12:20.709Z,78.90
2022-12-04T04:16:25.444Z,78.90
2022-12-04T04:20:33.990Z,78.90
2022-12-04T04:24:36.151Z,78.90
2022-12-04T04:28:33.566Z,78.60
2022-12-04T04:32:34.156Z,78.60
2022-12-04T04:36:46.662Z,78.60
2022-12-04T04:40:53.587Z,78.60
2022-12-04T04:45:08.411Z,78.60
2022-12-04T04:48:55.738Z,78.60
2022-12-04T04:52:41.022Z,78.60
2022-12-04T04:56:23.537Z,78.70
2022-12-04T05:00:11.377Z,78.70
2022-12-04T05:03:53.358Z,78.80
2022-12-04T05:07:35.335Z,78.80
2022-12-04T05:11:17.578Z,78.80
2022-12-04T05:14:59.534Z,78.80
2022-12-04T05:19:02.002Z,78.70
2022-12-04T05:22:44.034Z,78.70
2022-12-04T05:26:26.303Z,78.70
2022-12-04T05:30:10.035Z,78.60
2022-12-04T05:33:51.946Z,78.60
2022-12-04T05:37:37.433Z,78.50
2022-12-04T05:41:19.411Z,78.60
2022-12-04T05:45:01.538Z,78.50
2022-12-04T05:48:43.453Z,78.50
2022-12-04T05:52:25.423Z,78.50
2022-12-04T05:56:08.492Z,78.50
2022-12-04T05:59:51.099Z,78.50
2022-12-04T06:03:33.098Z,78.60
2022-12-04T06:07:15.103Z,78.60
2022-12-04T06:10:57.086Z,78.60
2022-12-04T06:14:39.918Z,78.60
2022-12-04T06:18:22.094Z,78.60
2022-12-04T06:22:04.205Z,78.70
2022-12-04T06:25:46.156Z,78.60
2022-12-04T06:29:28.062Z,78.70
2022-12-04T06:33:09.992Z,78.70
2022-12-04T06:36:51.920Z,78.70
2022-12-04T06:40:33.861Z,78.70
2022-12-04T06:44:16.745Z,78.50
2022-12-04T06:47:58.720Z,78.60
2022-12-04T06:51:41.053Z,78.60
2022-12-04T06:55:23.291Z,78.50
2022-12-04T06:59:05.805Z,78.50
2022-12-04T07:02:48.053Z,78.50
2022-12-04T07:06:35.680Z,78.50
2022-12-04T07:10:17.692Z,78.50
2022-12-04T07:13:59.981Z,78.50
2022-12-04T07:17:41.941Z,78.50
2022-12-04T07:21:31.543Z,78.70
2022-12-04T07:25:13.491Z,78.70
2022-12-04T07:28:56.826Z,78.70
2022-12-04T07:32:38.939Z,78.70
2022-12-04T07:36:22.459Z,78.70
2022-12-04T07:40:05.202Z,78.80
2022-12-04T07:43:47.535Z,78.70
2022-12-04T07:47:29.535Z,78.80
2022-12-04T07:51:17.263Z,78.80
2022-12-04T07:54:59.217Z,78.80
2022-12-04T07:58:42.310Z,78.80
2022-12-04T08:02:24.385Z,78.80
2022-12-04T08:06:07.532Z,78.90
2022-12-04T08:09:49.449Z,78.90
2022-12-04T08:13:31.363Z,79.00
2022-12-04T08:17:13.417Z,79.00
2022-12-04T08:20:55.524Z,79.00
2022-12-04T08:24:37.506Z,79.00
2022-12-04T08:28:19.436Z,79.00
2022-12-04T08:32:01.468Z,79.00
2022-12-04T08:35:43.391Z,79.10
2022-12-04T08:39:26.150Z,79.20
2022-12-04T08:43:08.090Z,79.30
2022-12-04T08:46:50.138Z,79.40
2022-12-04T08:50:32.343Z,79.40
2022-12-04T08:54:14.440Z,79.50
2022-12-04T08:57:56.378Z,79.50
2022-12-04T09:01:38.539Z,79.50
2022-12-04T09:05:20.512Z,79.70
2022-12-04T09:09:03.649Z,79.70
2022-12-04T09:12:46.066Z,79.80
2022-12-04T09:16:28.789Z,79.80
2022-12-04T09:20:11.196Z,79.90
2022-12-04T09:23:53.582Z,80.00
2022-12-04T09:27:41.782Z,80.00
2022-12-04T09:31:24.819Z,80.10
2022-12-04T09:35:07.622Z,79.90
2022-12-04T09:38:51.669Z,80.10
2022-12-04T09:42:39.407Z,80.10
2022-12-04T09:46:35.594Z,80.10
2022-12-04T09:50:28.747Z,80.20
2022-12-04T09:54:18.311Z,80.10
2022-12-04T09:58:03.673Z,80.10
2022-12-04T10:01:54.262Z,80.00
2022-12-04T10:05:41.844Z,80.00
2022-12-04T10:09:29.832Z,80.20
2022-12-04T10:13:30.637Z,80.30
2022-12-04T10:17:33.938Z,80.50
2022-12-04T10:21:18.707Z,80.30
2022-12-04T10:25:12.290Z,80.30
2022-12-04T10:29:03.360Z,80.30
2022-12-04T10:32:46.490Z,80.30
2022-12-04T10:36:34.811Z,80.20
2022-12-04T10:40:25.811Z,80.20
2022-12-04T10:44:14.886Z,80.30
2022-12-04T10:47:57.094Z,80.30
2022-12-04T10:51:41.546Z,80.40
2022-12-04T10:55:35.250Z,80.30
2022-12-04T10:59:17.328Z,80.40
2022-12-04T11:03:08.850Z,80.30
2022-12-04T11:06:59.932Z,80.40
2022-12-04T11:10:44.070Z,80.60
2022-12-04T11:14:25.989Z,80.50
2022-12-04T11:18:10.402Z,80.40
2022-12-04T11:21:54.671Z,80.50
2022-12-04T11:25:45.093Z,80.60
2022-12-04T11:29:35.773Z,80.50
2022-12-04T11:33:29.350Z,80.50
2022-12-04T11:37:26.230Z,80.40
2022-12-04T11:41:24.774Z,80.60
2022-12-04T11:49:05.832Z,80.60
2022-12-04T11:53:13.514Z,80.50
2022-12-04T12:01:20.456Z,80.60
2022-12-04T12:05:02.351Z,80.60
2022-12-04T12:13:05.197Z,80.40
2022-12-04T12:16:55.789Z,80.40
2022-12-04T12:20:57.854Z,80.50
2022-12-04T12:24:45.584Z,80.60
2022-12-04T12:28:40.436Z,80.40
2022-12-04T12:33:03.689Z,80.60
2022-12-04T12:36:50.631Z,81.00
2022-12-04T12:40:40.450Z,80.50
2022-12-04T12:44:34.869Z,80.50
2022-12-04T12:48:23.102Z,80.60
2022-12-04T12:52:13.431Z,80.70
2022-12-04T12:56:00.255Z,80.80
2022-12-04T12:59:49.110Z,80.80
2022-12-04T13:03:57.330Z,80.70
2022-12-04T13:07:48.143Z,80.90
2022-12-04T13:11:32.309Z,80.80
2022-12-04T13:15:17.178Z,80.80
2022-12-04T13:19:32.928Z,80.90
2022-12-04T13:32:32.334Z,80.90
2022-12-04T13:41:00.747Z,80.90
2022-12-04T13:44:42.823Z,80.90
2022-12-04T13:52:42.660Z,81.00
2022-12-04T13:56:27.793Z,80.90
2022-12-04T14:00:28.256Z,80.90
2022-12-04T14:04:45.362Z,81.10
2022-12-04T14:08:31.975Z,81.00
2022-12-04T14:12:16.183Z,81.00
2022-12-04T14:16:08.055Z,81.10
2022-12-04T14:19:55.280Z,81.10
2022-12-04T14:23:40.484Z,81.10
2022-12-04T14:27:51.770Z,81.20
2022-12-04T14:31:40.829Z,81.30
2022-12-04T14:35:28.239Z,81.10
2022-12-04T14:39:26.205Z,81.20
2022-12-04T14:43:21.761Z,81.20
2022-12-04T14:50:57.592Z,81.20
2022-12-04T14:55:06.694Z,81.10
2022-12-04T14:58:48.799Z,81.30
2022-12-04T15:02:52.169Z,81.20
2022-12-04T15:06:34.542Z,81.30
2022-12-04T15:10:47.005Z,81.10
2022-12-04T15:14:28.989Z,81.10
2022-12-04T15:18:16.406Z,81.10
2022-12-04T15:21:58.452Z,81.20
2022-12-04T15:29:48.361Z,81.10
2022-12-04T15:33:38.495Z,81.10
2022-12-04T15:41:37.428Z,81.10
2022-12-04T15:45:19.309Z,81.00
2022-12-04T15:49:19.120Z,80.90
2022-12-04T16:05:36.600Z,80.90
2022-12-04T16:09:26.016Z,80.90
2022-12-04T16:13:25.447Z,80.80
2022-12-04T16:17:10.730Z,80.90
2022-12-04T16:20:53.431Z,80.80
2022-12-04T16:24:35.391Z,80.80
2022-12-04T16:28:17.448Z,80.70
2022-12-04T16:32:02.915Z,80.70
2022-12-04T16:39:26.070Z,80.70
2022-12-04T16:43:11.957Z,80.70
2022-12-04T16:46:53.998Z,80.70
2022-12-04T16:50:36.690Z,80.70
2022-12-04T16:54:18.684Z,80.70
2022-12-04T16:58:00.708Z,80.70
2022-12-04T17:01:47.520Z,80.60
2022-12-04T17:05:31.786Z,80.70
2022-12-04T17:09:14.411Z,80.60
2022-12-04T17:12:56.374Z,80.60
2022-12-04T17:16:43.862Z,80.60
2022-12-04T17:20:25.983Z,80.60
2022-12-04T17:24:08.576Z,80.60
2022-12-04T17:27:50.839Z,80.60
2022-12-04T17:31:32.874Z,80.50
2022-12-04T17:35:15.393Z,80.60
2022-12-04T17:38:59.544Z,80.60
2022-12-04T17:42:42.575Z,80.50
2022-12-04T17:46:24.808Z,80.50
2022-12-04T17:50:07.333Z,80.50
2022-12-04T17:53:49.827Z,80.50
2022-12-04T17:57:33.295Z,80.50
2022-12-04T18:01:23.809Z,80.50
2022-12-04T18:05:06.019Z,80.40
2022-12-04T18:08:50.275Z,80.30
2022-12-04T18:12:32.503Z,80.30
2022-12-04T18:16:14.722Z,80.30
2022-12-04T18:19:59.920Z,80.30
2022-12-04T18:23:46.280Z,80.30
2022-12-04T18:27:28.280Z,80.20
2022-12-04T18:31:12.389Z,80.20
2022-12-04T18:34:54.424Z,80.10
2022-12-04T18:38:36.441Z,80.10
2022-12-04T18:42:18.420Z,80.10
2022-12-04T18:46:07.343Z,80.00
2022-12-04T18:49:49.671Z,80.00
2022-12-04T18:53:31.705Z,80.00
2022-12-04T18:57:13.659Z,80.00
2022-12-04T19:00:55.746Z,79.90
2022-12-04T19:04:37.730Z,79.90
2022-12-04T19:08:19.762Z,79.80
2022-12-04T19:12:01.764Z,79.70
2022-12-04T19:15:44.686Z,79.80
2022-12-04T19:19:31.415Z,79.70
2022-12-04T19:23:13.798Z,79.70
2022-12-04T19:26:55.805Z,79.70
2022-12-04T19:30:37.774Z,79.60
2022-12-04T19:34:19.750Z,79.60
2022-12-04T19:38:01.711Z,79.60
2022-12-04T19:41:43.776Z,79.60
2022-12-04T19:45:25.784Z,79.50
2022-12-04T19:49:08.346Z,79.40
2022-12-04T19:52:50.908Z,79.40
2022-12-04T19:56:51.262Z,79.40
2022-12-04T20:00:33.498Z,79.20
2022-12-04T20:04:15.747Z,79.30
2022-12-04T20:11:41.234Z,79.20
2022-12-04T20:15:23.277Z,79.20
2022-12-04T20:19:06.939Z,79.10
2022-12-04T20:22:48.928Z,79.10
2022-12-04T20:26:34.719Z,79.10
2022-12-04T20:30:16.822Z,79.10
2022-12-04T20:34:00.590Z,79.00
2022-12-04T20:37:42.596Z,78.90
2022-12-04T20:41:27.266Z,78.90
2022-12-04T20:45:09.860Z,78.80
2022-12-04T20:48:53.576Z,78.80
2022-12-04T20:52:35.574Z,78.70
2022-12-04T20:56:19.010Z,78.50
2022-12-04T21:00:01.901Z,78.50
2022-12-04T21:03:44.648Z,78.50
2022-12-04T21:07:26.643Z,78.40
2022-12-04T21:11:08.637Z,78.40
2022-12-04T21:15:09.203Z,78.30
2022-12-04T21:18:51.219Z,78.30
2022-12-04T21:22:33.210Z,78.20
2022-12-04T21:26:15.225Z,78.20
2022-12-04T21:29:57.509Z,78.20
2022-12-04T21:33:39.683Z,78.20
2022-12-04T21:37:21.704Z,78.20
2022-12-04T21:41:05.809Z,78.20
2022-12-04T21:44:47.791Z,78.10
2022-12-04T21:48:31.275Z,78.20
2022-12-04T21:52:13.597Z,78.10
2022-12-04T21:55:57.237Z,78.10
2022-12-04T21:59:39.247Z,78.10
2022-12-04T22:03:21.310Z,77.90
2022-12-04T22:07:03.358Z,78.00
2022-12-04T22:10:47.620Z,77.90
2022-12-04T22:14:29.708Z,77.90
2022-12-04T22:18:12.503Z,77.70
2022-12-04T22:21:54.539Z,77.70
2022-12-04T22:25:40.838Z,77.70
2022-12-04T22:33:24.792Z,77.60
2022-12-04T22:37:06.743Z,77.50
2022-12-04T22:40:48.761Z,77.60
2022-12-04T22:44:31.202Z,77.50
2022-12-04T22:48:13.183Z,77.50
2022-12-04T22:51:55.191Z,77.60
2022-12-04T22:55:37.186Z,77.50
2022-12-04T22:59:19.341Z,77.50
2022-12-04T23:03:01.350Z,77.60
2022-12-04T23:06:43.333Z,77.60
2022-12-04T23:10:25.484Z,77.50
2022-12-04T23:14:11.422Z,77.50
2022-12-04T23:17:53.438Z,77.60
2022-12-04T23:21:35.943Z,77.60
2022-12-04T23:25:17.954Z,77.60
2022-12-04T23:29:01.803Z,77.60
2022-12-04T23:32:43.960Z,77.70
2022-12-04T23:36:26.488Z,77.70
2022-12-04T23:40:08.938Z,77.60
2022-12-04T23:43:52.303Z,77.70
2022-12-04T23:47:37.485Z,77.70
2022-12-04T23:51:20.401Z,77.60
2022-12-04T23:55:02.447Z,77.60
2022-12-04T23:58:46.855Z,77.70
